Time;durP1;ratioP1;P1;durP2;ratioP2;P2;SDS_P1;SDS_P2;PMS_P1;PMS_P2;Temp;Humidity;BMP_temperature;BMP_pressure;BME280_temperature;BME280_humidity;BME280_pressure;Samples;Min_cycle;Max_cycle;Signal;HPM_P1;HPM_P2
2022/02/10 00:21:50;;;;;;;;;;;13.30;55.90;;;;;;5151490;27;19914;-70
2022/02/10 00:35:12;;;;;;;;;;;13.30;55.70;;;;;;5162296;27;20442;-71
2022/02/10 00:37:50;;;;;;;;;;;13.30;55.80;;;;;;5162126;27;19903;-70
2022/02/10 00:40:20;;;;;;;;;;;13.30;55.90;;;;;;5162094;27;19938;-70
2022/02/10 00:42:46;;;;;;;;;;;13.30;55.80;;;;;;5161634;27;19942;-70
2022/02/10 00:45:11;;;;;;;;;;;13.30;55.80;;;;;;5161937;27;20107;-70
2022/02/10 00:48:11;;;;;;;;;;;13.30;55.80;;;;;;5161923;27;19910;-70
2022/02/10 00:50:30;;;;;;;;;;;13.30;55.80;;;;;;5157691;27;19911;-71
2022/02/10 00:53:23;;;;;;;;;;;13.30;55.70;;;;;;5162014;27;20009;-70
2022/02/10 00:55:44;;;;;;;;;;;13.30;55.80;;;;;;5161361;27;19903;-70
2022/02/10 00:58:19;;;;;;;;;;;13.30;55.60;;;;;;5161819;27;20058;-70
2022/02/10 01:30:56;;;;;;;;;;;13.30;55.80;;;;;;5161459;27;20267;-70
2022/02/10 01:33:22;;;;;;;;;;;13.30;55.70;;;;;;5161381;27;19910;-70
2022/02/10 01:35:48;;;;;;;;;;;13.30;55.70;;;;;;5161365;27;19911;-70
2022/02/10 01:38:13;;;;;;;;;;;13.30;55.70;;;;;;5161361;27;20174;-70
2022/02/10 01:41:16;;;;;;;;;;;13.30;55.60;;;;;;5161278;27;19910;-70
2022/02/10 02:05:38;;;;;;;;;;;13.30;55.70;;;;;;5164771;27;19922;-70
2022/02/10 02:08:06;;;;;;;;;;;13.30;55.70;;;;;;5164950;27;19919;-71
2022/02/10 02:10:32;;;;;;;;;;;13.30;55.60;;;;;;5164839;27;20210;-71
2022/02/10 02:12:57;;;;;;;;;;;13.30;55.60;;;;;;5164822;27;19911;-71
2022/02/10 02:15:25;;;;;;;;;;;13.20;55.70;;;;;;5164826;27;20340;-71
2022/02/10 02:17:50;;;;;;;;;;;13.30;55.60;;;;;;5164674;27;19903;-71
2022/02/10 02:20:16;;;;;;;;;;;13.30;55.60;;;;;;5164619;27;19934;-71
2022/02/10 02:22:41;;;;;;;;;;;13.30;55.60;;;;;;5164660;27;19904;-71
2022/02/10 02:25:07;;;;;;;;;;;13.30;55.60;;;;;;5164441;27;19907;-71
2022/02/10 02:27:46;;;;;;;;;;;13.30;56.20;;;;;;5164569;27;20204;-70
2022/02/10 02:30:23;;;;;;;;;;;13.30;55.60;;;;;;5164464;27;19911;-70
2022/02/10 02:33:18;;;;;;;;;;;13.20;55.60;;;;;;5164430;27;20203;-70
2022/02/10 02:36:05;;;;;;;;;;;13.20;55.70;;;;;;5163996;27;19903;-70
2022/02/10 03:05:39;;;;;;;;;;;13.20;55.70;;;;;;5163301;27;19946;-70
2022/02/10 03:08:13;;;;;;;;;;;13.20;55.70;;;;;;5163801;27;19911;-70
2022/02/10 03:11:05;;;;;;;;;;;13.20;55.70;;;;;;5163766;27;19952;-70
2022/02/10 03:13:30;;;;;;;;;;;13.20;55.70;;;;;;5163098;27;19911;-70
2022/02/10 04:16:13;;;;;;;;;;;13.10;55.60;;;;;;5162123;27;19918;-69
2022/02/10 04:21:13;;;;;;;;;;;13.20;55.60;;;;;;5162405;27;19910;-70
2022/02/10 04:56:25;;;;;;;;;;;13.10;55.60;;;;;;5161892;27;19947;-69
2022/02/10 05:06:39;;;;;;;;;;;13.10;55.20;;;;;;5161796;27;19923;-69
2022/02/10 05:33:15;;;;;;;;;;;13.00;55.60;;;;;;5165752;27;20115;-69
2022/02/10 05:35:46;;;;;;;;;;;13.00;55.40;;;;;;5165697;27;19952;-71
2022/02/10 05:38:16;;;;;;;;;;;13.00;55.50;;;;;;5165719;27;19915;-70
2022/02/10 07:07:07;;;;;;;;;;;12.90;55.80;;;;;;5163663;27;19926;-69
2022/02/10 07:53:06;;;;;;;;;;;13.20;55.00;;;;;;5162145;27;19912;-69
2022/02/10 09:18:29;;;;;;;;;;;13.20;55.20;;;;;;5161632;27;20099;-69
2022/02/10 09:55:59;;;;;;;;;;;13.30;55.50;;;;;;5161609;27;19903;-69
2022/02/10 10:01:14;;;;;;;;;;;13.40;55.50;;;;;;5161318;27;20335;-69
2022/02/10 10:03:44;;;;;;;;;;;13.40;55.50;;;;;;5161129;27;20195;-68
2022/02/10 10:06:17;;;;;;;;;;;13.40;55.50;;;;;;5160999;27;20026;-70
2022/02/10 10:19:32;;;;;;;;;;;13.40;55.70;;;;;;5165109;27;19903;-70
2022/02/10 10:22:15;;;;;;;;;;;13.30;55.60;;;;;;5164842;27;20128;-69
2022/02/10 10:25:11;;;;;;;;;;;13.40;55.70;;;;;;5164716;27;19915;-69
2022/02/10 10:50:46;;;;;;;;;;;13.40;55.80;;;;;;5164302;27;20264;-70
2022/02/10 10:58:46;;;;;;;;;;;13.50;55.80;;;;;;5164313;27;19922;-69
2022/02/10 11:38:04;;;;;;;;;;;13.50;56.00;;;;;;5163314;27;19911;-72
2022/02/10 11:40:36;;;;;;;;;;;13.60;56.10;;;;;;5163157;27;19910;-71
2022/02/10 11:43:06;;;;;;;;;;;13.60;56.20;;;;;;5163102;27;19918;-71
2022/02/10 11:46:13;;;;;;;;;;;13.60;56.10;;;;;;5163063;27;19917;-70
2022/02/10 12:31:13;;;;;;;;;;;13.70;56.30;;;;;;5162584;27;20306;-71
2022/02/10 12:39:24;;;;;;;;;;;13.70;56.40;;;;;;5161728;27;19911;-69
2022/02/10 14:18:05;;;;;;;;;;;14.10;56.50;;;;;;5164760;27;19903;-70
2022/02/10 14:25:49;;;;;;;;;;;14.10;56.40;;;;;;5164516;27;19915;-70
2022/02/10 14:28:16;;;;;;;;;;;14.20;56.50;;;;;;5145983;27;19911;-70
2022/02/10 14:30:42;;;;;;;;;;;14.20;56.40;;;;;;5164474;27;20207;-70
2022/02/10 14:33:08;;;;;;;;;;;14.20;56.30;;;;;;5164467;27;19942;-69
2022/02/10 15:11:01;;;;;;;;;;;14.20;56.40;;;;;;5164228;27;19956;-70
2022/02/10 15:21:32;;;;;;;;;;;14.50;56.00;;;;;;5163793;27;20183;-70
2022/02/10 15:30:20;;;;;;;;;;;14.30;56.80;;;;;;5163396;27;20130;-70
2022/02/10 15:51:34;;;;;;;;;;;14.20;57.20;;;;;;5162941;27;19933;-70
2022/02/10 15:56:55;;;;;;;;;;;14.10;57.20;;;;;;5162827;27;19918;-70
2022/02/10 16:16:48;;;;;;;;;;;14.00;57.40;;;;;;5162359;27;20099;-69
2022/02/10 16:18:51;;;;;;;;;;;14.10;57.40;;;;;;5162118;27;19915;-71
2022/02/10 16:21:26;;;;;;;;;;;14.10;57.30;;;;;;5162315;27;19934;-70
2022/02/10 16:23:59;;;;;;;;;;;14.00;57.20;;;;;;5162178;27;19915;-70
2022/02/10 16:26:34;;;;;;;;;;;14.10;57.30;;;;;;5162264;27;19903;-69
2022/02/10 16:29:02;;;;;;;;;;;14.10;57.20;;;;;;5162151;27;19903;-70
2022/02/10 16:31:27;;;;;;;;;;;14.10;57.20;;;;;;5143452;27;19938;-70
2022/02/10 16:33:55;;;;;;;;;;;14.10;57.20;;;;;;5162036;27;19918;-70
2022/02/10 16:36:22;;;;;;;;;;;14.00;57.10;;;;;;5162008;27;19918;-70
2022/02/10 16:38:48;;;;;;;;;;;14.00;57.10;;;;;;5162018;27;20480;-70
2022/02/10 16:41:14;;;;;;;;;;;14.10;57.10;;;;;;5161986;27;19911;-70
2022/02/10 16:43:41;;;;;;;;;;;14.10;57.10;;;;;;5161831;27;19903;-70
2022/02/10 16:46:10;;;;;;;;;;;14.00;57.20;;;;;;5161908;27;20279;-70
2022/02/10 16:48:37;;;;;;;;;;;14.00;57.30;;;;;;5161882;27;19911;-69
2022/02/10 16:51:03;;;;;;;;;;;14.00;57.30;;;;;;5143256;27;19918;-69
2022/02/10 16:53:29;;;;;;;;;;;14.00;57.30;;;;;;5161722;27;19915;-70
2022/02/10 17:14:07;;;;;;;;;;;14.10;57.10;;;;;;5161651;27;19962;-70
2022/02/10 17:14:43;;;;;;;;;;;14.00;57.00;;;;;;5161564;27;19939;-70
2022/02/10 17:27:38;;;;;;;;;;;14.00;57.00;;;;;;5166047;27;19903;-69
2022/02/10 17:53:51;;;;;;;;;;;14.00;56.80;;;;;;5165256;27;20099;-69
2022/02/10 17:56:17;;;;;;;;;;;14.00;57.50;;;;;;5165162;27;19918;-70
2022/02/10 17:58:43;;;;;;;;;;;14.00;56.80;;;;;;5165103;27;19935;-69
2022/02/10 18:01:09;;;;;;;;;;;14.00;56.90;;;;;;5165074;27;19911;-70
2022/02/10 18:03:35;;;;;;;;;;;14.00;56.80;;;;;;5164936;27;19903;-69
2022/02/10 18:08:41;;;;;;;;;;;14.00;56.70;;;;;;5164942;27;19910;-70
2022/02/10 18:13:50;;;;;;;;;;;14.00;56.70;;;;;;5165114;27;20394;-70
2022/02/10 18:16:27;;;;;;;;;;;14.00;56.70;;;;;;5164809;27;20207;-70
2022/02/10 18:18:59;;;;;;;;;;;14.00;56.60;;;;;;5164840;27;20262;-69
2022/02/10 18:21:54;;;;;;;;;;;14.00;56.60;;;;;;5164721;27;19918;-69
2022/02/10 19:05:38;;;;;;;;;;;14.00;56.50;;;;;;5164075;27;19907;-70
2022/02/10 19:09:49;;;;;;;;;;;14.00;56.60;;;;;;5164067;27;19985;-70
2022/02/10 19:12:24;;;;;;;;;;;14.00;56.50;;;;;;5163762;27;19907;-70
2022/02/10 19:15:32;;;;;;;;;;;13.90;56.50;;;;;;5163651;27;19946;-70
2022/02/10 19:17:43;;;;;;;;;;;14.00;56.60;;;;;;5160293;27;19982;-70
2022/02/10 19:20:09;;;;;;;;;;;13.90;56.60;;;;;;5163498;27;20219;-70
2022/02/10 19:22:35;;;;;;;;;;;13.90;56.60;;;;;;5163462;27;19931;-69
2022/02/10 19:25:01;;;;;;;;;;;13.90;56.50;;;;;;5163316;27;19960;-70
2022/02/10 19:27:26;;;;;;;;;;;13.90;56.50;;;;;;5163365;27;20103;-70
2022/02/10 19:29:57;;;;;;;;;;;13.90;56.40;;;;;;5163300;27;19918;-69
2022/02/10 19:32:24;;;;;;;;;;;13.90;56.40;;;;;;5163325;27;19911;-70
2022/02/10 19:34:53;;;;;;;;;;;14.00;56.40;;;;;;5163238;27;20158;-69
2022/02/10 19:37:18;;;;;;;;;;;14.00;56.40;;;;;;5163157;27;19938;-69
2022/02/10 19:39:50;;;;;;;;;;;14.00;56.40;;;;;;5163209;27;20196;-69
2022/02/10 19:42:16;;;;;;;;;;;14.00;56.40;;;;;;5163155;27;19911;-69
2022/02/10 19:44:41;;;;;;;;;;;14.00;56.30;;;;;;5162878;27;19915;-69
2022/02/10 19:47:07;;;;;;;;;;;14.00;56.30;;;;;;5162876;27;19911;-69
2022/02/10 19:49:35;;;;;;;;;;;14.00;56.40;;;;;;5162940;27;19955;-69
2022/02/10 19:52:01;;;;;;;;;;;14.00;56.30;;;;;;5162938;27;19911;-69
2022/02/10 19:54:30;;;;;;;;;;;14.00;56.40;;;;;;5162843;27;19918;-69
2022/02/10 19:56:57;;;;;;;;;;;13.90;56.30;;;;;;5162795;27;19932;-69
2022/02/10 19:59:29;;;;;;;;;;;14.00;56.40;;;;;;5162792;27;19918;-69
2022/02/10 20:01:55;;;;;;;;;;;13.90;56.30;;;;;;5162785;27;19907;-69
2022/02/10 20:04:21;;;;;;;;;;;13.90;56.40;;;;;;5162570;27;19915;-70
2022/02/10 20:06:47;;;;;;;;;;;13.90;56.40;;;;;;5162525;27;19923;-69
2022/02/10 20:09:14;;;;;;;;;;;13.90;56.30;;;;;;5162638;27;19918;-70
2022/02/10 20:11:40;;;;;;;;;;;13.90;56.30;;;;;;5162534;27;20191;-69
2022/02/10 20:14:05;;;;;;;;;;;13.90;56.20;;;;;;5162459;27;19978;-69
2022/02/10 20:16:31;;;;;;;;;;;13.90;56.30;;;;;;5162394;27;19975;-69
2022/02/10 20:18:56;;;;;;;;;;;13.90;56.20;;;;;;5162395;27;20196;-70
2022/02/10 20:21:22;;;;;;;;;;;13.90;56.20;;;;;;5162325;27;19919;-70
2022/02/10 20:23:48;;;;;;;;;;;14.00;56.30;;;;;;5162153;27;20231;-70
2022/02/10 20:26:14;;;;;;;;;;;13.90;56.30;;;;;;5162258;27;19918;-70
2022/02/10 20:28:41;;;;;;;;;;;13.90;56.30;;;;;;5162199;27;19917;-69
2022/02/10 20:31:08;;;;;;;;;;;13.90;56.40;;;;;;5162210;27;20360;-70
2022/02/10 20:33:34;;;;;;;;;;;13.90;56.30;;;;;;5162170;27;19918;-70
2022/02/10 20:36:02;;;;;;;;;;;13.90;56.40;;;;;;5162116;27;19982;-70
2022/02/10 20:38:29;;;;;;;;;;;13.90;56.40;;;;;;5143472;27;19974;-70
2022/02/10 20:41:07;;;;;;;;;;;13.90;56.40;;;;;;5162020;27;19903;-70
2022/02/10 20:43:33;;;;;;;;;;;13.90;56.40;;;;;;5161886;27;19912;-70
2022/02/10 20:46:02;;;;;;;;;;;13.90;56.30;;;;;;5161911;27;19970;-70
2022/02/10 20:48:32;;;;;;;;;;;13.90;56.30;;;;;;5161867;27;19964;-69
2022/02/10 20:50:58;;;;;;;;;;;13.90;56.20;;;;;;5161867;27;19911;-70
2022/02/10 20:53:28;;;;;;;;;;;13.90;56.20;;;;;;5161828;27;20032;-70
2022/02/10 20:55:54;;;;;;;;;;;13.90;56.10;;;;;;5161784;27;19911;-70
2022/02/10 20:58:25;;;;;;;;;;;13.90;56.10;;;;;;5142753;27;20216;-70
2022/02/10 21:00:53;;;;;;;;;;;13.90;56.20;;;;;;5161756;27;19914;-69
2022/02/10 21:03:22;;;;;;;;;;;13.90;56.20;;;;;;5161703;27;19918;-69
2022/02/10 21:05:49;;;;;;;;;;;13.90;56.20;;;;;;5142806;27;19930;-70
2022/02/10 21:08:44;;;;;;;;;;;13.90;56.20;;;;;;5161697;27;20276;-70
2022/02/10 21:11:02;;;;;;;;;;;13.90;56.20;;;;;;5161022;27;19915;-69
2022/02/10 21:13:29;;;;;;;;;;;13.90;56.20;;;;;;5161584;27;19910;-70
2022/02/10 21:15:55;;;;;;;;;;;13.90;56.30;;;;;;5161589;27;20287;-70
2022/02/10 21:18:21;;;;;;;;;;;13.90;56.20;;;;;;5161473;27;19910;-70
2022/02/10 21:20:49;;;;;;;;;;;13.90;56.20;;;;;;5161404;27;19918;-69
2022/02/10 21:23:25;;;;;;;;;;;13.90;56.20;;;;;;5161452;27;20229;-69
2022/02/10 21:25:54;;;;;;;;;;;13.90;56.20;;;;;;5161416;27;20380;-69
2022/02/10 21:28:28;;;;;;;;;;;13.90;56.10;;;;;;5161386;27;19914;-69
2022/02/10 21:30:56;;;;;;;;;;;13.90;56.60;;;;;;5161461;27;19911;-69
2022/02/10 21:38:24;;;;;;;;;;;13.90;56.00;;;;;;5161289;27;19911;-70
2022/02/10 21:41:28;;;;;;;;;;;13.90;56.20;;;;;;5161282;27;19907;-70
2022/02/10 22:20:44;;;;;;;;;;;13.90;56.10;;;;;;5164699;27;19954;-69
2022/02/10 22:23:17;;;;;;;;;;;13.90;56.00;;;;;;5164655;27;19919;-69
2022/02/10 22:25:43;;;;;;;;;;;13.90;56.10;;;;;;5164659;27;19919;-70
2022/02/10 22:28:24;;;;;;;;;;;13.80;56.10;;;;;;5146028;27;20207;-71
2022/02/10 22:31:03;;;;;;;;;;;13.80;56.10;;;;;;5164649;27;19963;-68
2022/02/10 22:33:48;;;;;;;;;;;13.80;56.10;;;;;;5164375;27;20266;-69
2022/02/10 22:36:16;;;;;;;;;;;13.80;56.20;;;;;;5164444;27;19949;-70
2022/02/10 22:38:42;;;;;;;;;;;13.80;56.20;;;;;;5164422;27;19911;-70
2022/02/10 22:41:12;;;;;;;;;;;13.80;56.10;;;;;;5164294;27;19988;-70
2022/02/10 22:43:38;;;;;;;;;;;13.80;56.10;;;;;;5164152;27;19982;-71
2022/02/10 22:46:04;;;;;;;;;;;13.80;56.10;;;;;;5164265;27;20331;-70
2022/02/10 22:48:29;;;;;;;;;;;13.80;56.00;;;;;;5164105;27;19933;-70
2022/02/10 22:50:55;;;;;;;;;;;13.90;56.00;;;;;;5164261;27;20413;-70
2022/02/10 22:53:21;;;;;;;;;;;13.90;55.90;;;;;;5164198;27;19911;-70
2022/02/10 22:55:47;;;;;;;;;;;13.80;55.90;;;;;;5164008;27;20196;-70
2022/02/10 22:58:13;;;;;;;;;;;13.90;55.90;;;;;;5164051;27;19927;-70
2022/02/10 23:00:47;;;;;;;;;;;13.80;55.90;;;;;;5163949;27;19946;-70
2022/02/10 23:03:22;;;;;;;;;;;13.90;55.90;;;;;;5163965;27;19903;-70
2022/02/10 23:05:48;;;;;;;;;;;13.90;55.90;;;;;;5163655;27;19930;-70
2022/02/10 23:08:15;;;;;;;;;;;13.80;55.90;;;;;;5163876;27;19911;-70
2022/02/10 23:10:46;;;;;;;;;;;13.90;56.00;;;;;;5163773;27;19907;-70
2022/02/10 23:13:12;;;;;;;;;;;13.80;56.00;;;;;;5163739;27;19918;-70
2022/02/10 23:15:40;;;;;;;;;;;13.80;56.00;;;;;;5163733;27;19918;-71
2022/02/10 23:18:07;;;;;;;;;;;13.80;56.00;;;;;;5163570;27;19911;-70
2022/02/10 23:20:33;;;;;;;;;;;13.80;56.00;;;;;;5163598;27;19911;-70
2022/02/10 23:22:58;;;;;;;;;;;13.80;56.00;;;;;;5163027;27;19911;-70
2022/02/10 23:25:26;;;;;;;;;;;13.80;56.00;;;;;;5163422;27;19923;-70
2022/02/10 23:27:52;;;;;;;;;;;13.80;56.00;;;;;;5163416;27;19911;-70
2022/02/10 23:30:20;;;;;;;;;;;13.80;56.00;;;;;;5163357;27;19921;-70
2022/02/10 23:32:46;;;;;;;;;;;13.80;56.00;;;;;;5163352;27;19951;-70
2022/02/10 23:35:37;;;;;;;;;;;13.80;55.90;;;;;;5163250;27;19942;-70
2022/02/10 23:37:57;;;;;;;;;;;13.80;55.90;;;;;;5163088;27;20203;-70
2022/02/10 23:40:27;;;;;;;;;;;13.80;55.90;;;;;;5163122;27;19982;-70
2022/02/10 23:42:54;;;;;;;;;;;13.80;55.90;;;;;;5163108;27;19990;-70
2022/02/10 23:45:24;;;;;;;;;;;13.80;55.80;;;;;;5162977;27;19907;-70
2022/02/10 23:47:51;;;;;;;;;;;13.80;55.90;;;;;;5144293;27;19903;-70
2022/02/10 23:50:20;;;;;;;;;;;13.80;55.90;;;;;;5162961;27;20234;-70
2022/02/10 23:52:47;;;;;;;;;;;13.80;55.90;;;;;;5162921;27;19911;-70
2022/02/10 23:55:21;;;;;;;;;;;13.80;55.90;;;;;;5144286;27;19951;-70
2022/02/10 23:57:58;;;;;;;;;;;13.80;56.00;;;;;;5162861;27;19911;-69
